< < Back
Terminal Aerodrome Forecast


Current Version              Previous Versions:   1  2  3  4  5  6  7  8  9  

Terminal Aerodrome Forecast

714
FTUS44 KBMX 270305 AAA
TAFMGM
TAF AMD
KMGM 270305Z 2703/2724 31007KT P6SM BKN250
     FM270400 36010G18KT P6SM BKN250
     FM270700 05008KT P6SM BKN250
     FM271500 03006KT P6SM SCT250=



Latest METAR

881
SAUS80 KWBC 272000 RRB
MTRMGM
METAR KMGM 271953Z 03005KT 10SM CLR 22/10 A2987 RMK AO2 SLP111
T02170100


USA.gov is the U.S. government's official web portal to all federal, state and local government web resources and services.